createdAt,value
2022-08-17T00:00:42.925Z,52.14
2022-08-17T00:03:10.570Z,52.66
2022-08-17T00:05:36.938Z,52.16
2022-08-17T00:08:03.322Z,52.47
2022-08-17T00:10:29.685Z,52.14
2022-08-17T00:12:58.784Z,51.21
2022-08-17T00:15:25.144Z,51.55
2022-08-17T00:17:51.513Z,52.47
2022-08-17T00:20:17.887Z,51.44
2022-08-17T00:22:46.386Z,52.39
2022-08-17T00:25:12.750Z,52.01
2022-08-17T00:27:39.106Z,53.12
2022-08-17T00:30:05.465Z,52.36
2022-08-17T00:33:11.875Z,51.46
2022-08-17T00:35:18.170Z,51.90
2022-08-17T00:37:44.539Z,52.89
2022-08-17T00:40:10.986Z,53.43
2022-08-17T00:42:37.416Z,53.91
2022-08-17T00:45:03.772Z,54.11
2022-08-17T00:47:30.135Z,53.17
2022-08-17T00:49:56.510Z,53.89
2022-08-17T00:52:22.892Z,53.15
2022-08-17T00:54:49.263Z,53.82
2022-08-17T00:57:15.630Z,53.66
2022-08-17T00:59:41.993Z,54.55
2022-08-17T01:02:08.357Z,54.06
2022-08-17T01:04:34.730Z,54.38
2022-08-17T01:07:01.091Z,53.66
2022-08-17T01:09:27.495Z,54.26
2022-08-17T01:11:53.869Z,53.83
2022-08-17T01:14:20.233Z,53.57
2022-08-17T01:16:46.579Z,53.81
2022-08-17T01:19:12.933Z,54.24
2022-08-17T01:21:39.300Z,54.60
2022-08-17T01:24:05.668Z,54.93
2022-08-17T01:26:32.042Z,54.07
2022-08-17T01:28:58.418Z,54.10
2022-08-17T01:31:24.776Z,54.08
2022-08-17T01:33:51.131Z,54.28
2022-08-17T01:36:17.490Z,53.69
2022-08-17T01:38:43.859Z,54.51
2022-08-17T01:41:10.226Z,54.15
2022-08-17T01:43:36.593Z,54.35
2022-08-17T01:46:03.907Z,53.48
2022-08-17T01:48:30.489Z,53.90
2022-08-17T01:50:56.854Z,53.93
2022-08-17T01:53:23.204Z,54.41
2022-08-17T01:55:49.569Z,53.61
2022-08-17T01:58:15.925Z,54.41
2022-08-17T02:00:48.321Z,55.25
2022-08-17T02:03:26.769Z,54.52
2022-08-17T02:05:53.133Z,54.38
2022-08-17T02:08:20.086Z,54.14
2022-08-17T02:10:46.958Z,53.98
2022-08-17T02:13:13.379Z,54.34
2022-08-17T02:15:39.736Z,55.18
2022-08-17T02:18:06.099Z,55.40
2022-08-17T02:20:41.709Z,55.14
2022-08-17T02:23:09.109Z,54.51
2022-08-17T02:25:35.469Z,55.28
2022-08-17T02:28:01.822Z,54.56
2022-08-17T02:31:01.353Z,54.42
2022-08-17T02:33:14.517Z,54.47
2022-08-17T02:35:40.883Z,54.29
2022-08-17T02:38:07.257Z,55.16
2022-08-17T02:40:36.185Z,54.29
2022-08-17T02:43:03.127Z,54.14
2022-08-17T02:45:29.489Z,54.30
2022-08-17T02:47:55.849Z,54.24
2022-08-17T02:50:22.209Z,55.13
2022-08-17T02:52:57.276Z,54.00
2022-08-17T02:55:29.040Z,54.51
2022-08-17T02:57:55.405Z,54.54
2022-08-17T03:00:21.785Z,54.95
2022-08-17T03:02:48.158Z,54.95
2022-08-17T03:05:14.532Z,54.66
2022-08-17T03:07:40.898Z,54.41
2022-08-17T03:10:07.255Z,54.43
2022-08-17T03:12:33.629Z,55.08
2022-08-17T03:15:00.018Z,55.37
2022-08-17T03:17:26.381Z,55.05
2022-08-17T03:19:52.763Z,54.84
2022-08-17T03:22:37.116Z,54.78
2022-08-17T03:25:04.697Z,54.91
2022-08-17T03:27:37.090Z,54.37
2022-08-17T03:30:05.866Z,53.87
2022-08-17T03:32:32.232Z,54.24
2022-08-17T03:34:58.598Z,54.80
2022-08-17T03:37:24.965Z,54.24
2022-08-17T03:39:51.365Z,54.22
2022-08-17T03:42:31.397Z,54.41
2022-08-17T03:44:59.215Z,54.98
2022-08-17T03:47:25.573Z,55.23
2022-08-17T03:49:51.943Z,55.05
2022-08-17T03:52:18.332Z,54.90
2022-08-17T03:54:44.722Z,55.21
2022-08-17T03:57:11.103Z,55.04
2022-08-17T03:59:37.471Z,55.16
2022-08-17T04:02:03.842Z,54.98
2022-08-17T04:04:30.209Z,55.32
2022-08-17T04:06:56.569Z,55.80
2022-08-17T04:09:22.934Z,55.61
2022-08-17T04:11:49.303Z,55.40
2022-08-17T04:14:15.685Z,55.06
2022-08-17T04:16:42.061Z,56.24
2022-08-17T04:19:08.436Z,55.97
2022-08-17T04:21:34.810Z,55.88
2022-08-17T04:24:01.175Z,56.47
2022-08-17T04:26:53.001Z,57.78
2022-08-17T04:29:13.889Z,58.02
2022-08-17T04:31:40.261Z,57.56
2022-08-17T04:34:06.634Z,59.96
2022-08-17T04:36:33.000Z,59.42
2022-08-17T04:38:59.369Z,57.18
2022-08-17T04:41:25.741Z,55.74
2022-08-17T04:43:52.100Z,55.47
2022-08-17T04:46:18.470Z,55.40
2022-08-17T04:48:44.849Z,54.00
2022-08-17T04:51:11.221Z,53.86
2022-08-17T04:53:37.601Z,53.53
2022-08-17T04:56:04.008Z,53.37
2022-08-17T04:58:30.410Z,53.16
2022-08-17T05:00:56.867Z,52.80
2022-08-17T05:03:23.294Z,53.52
2022-08-17T05:05:49.924Z,52.83
2022-08-17T05:08:16.436Z,53.18
2022-08-17T05:10:45.411Z,53.04
2022-08-17T05:13:12.141Z,53.30
2022-08-17T05:15:38.509Z,53.26
2022-08-17T05:18:11.380Z,52.69
2022-08-17T05:20:37.773Z,53.40
2022-08-17T05:23:04.147Z,53.36
2022-08-17T05:25:30.537Z,52.64
2022-08-17T05:28:00.817Z,53.08
2022-08-17T05:30:28.517Z,52.66
2022-08-17T05:32:55.173Z,52.45
2022-08-17T05:35:21.728Z,53.02
2022-08-17T05:37:48.120Z,53.02
2022-08-17T05:40:14.493Z,52.45
2022-08-17T05:42:40.856Z,52.22
2022-08-17T05:45:07.234Z,52.73
2022-08-17T05:47:33.616Z,52.47
2022-08-17T05:49:59.974Z,52.36
2022-08-17T05:52:28.285Z,52.78
2022-08-17T05:54:54.662Z,52.81
2022-08-17T05:57:22.155Z,52.36
2022-08-17T05:59:49.146Z,52.42
2022-08-17T06:02:15.509Z,52.46
2022-08-17T06:04:41.880Z,52.46
2022-08-17T06:07:08.250Z,52.20
2022-08-17T06:09:34.610Z,52.64
2022-08-17T06:12:00.975Z,52.52
2022-08-17T06:14:28.877Z,52.21
2022-08-17T06:16:55.235Z,52.36
2022-08-17T06:19:21.602Z,52.33
2022-08-17T06:21:47.973Z,52.15
2022-08-17T06:24:14.343Z,52.15
2022-08-17T06:26:43.305Z,52.37
2022-08-17T06:29:09.928Z,52.24
2022-08-17T06:31:45.283Z,51.91
2022-08-17T06:34:11.657Z,51.92
2022-08-17T06:36:38.024Z,51.80
2022-08-17T06:39:04.417Z,51.88
2022-08-17T06:41:30.790Z,51.76
2022-08-17T06:43:57.159Z,52.14
2022-08-17T06:46:23.540Z,52.25
2022-08-17T06:48:49.918Z,51.93
2022-08-17T06:51:16.276Z,52.11
2022-08-17T06:53:42.650Z,51.55
2022-08-17T06:56:09.032Z,51.72
2022-08-17T06:58:35.397Z,51.55
2022-08-17T07:01:03.111Z,51.55
2022-08-17T07:03:29.536Z,51.93
2022-08-17T07:05:55.903Z,51.62
2022-08-17T07:08:27.686Z,51.36
2022-08-17T07:10:56.380Z,51.55
2022-08-17T07:13:22.753Z,51.22
2022-08-17T07:15:50.947Z,51.51
2022-08-17T07:18:20.312Z,51.29
2022-08-17T07:20:46.675Z,51.41
2022-08-17T07:23:13.060Z,51.76
2022-08-17T07:25:39.436Z,51.73
2022-08-17T07:28:06.843Z,51.51
2022-08-17T07:30:45.528Z,51.61
2022-08-17T07:33:13.919Z,51.32
2022-08-17T07:35:41.300Z,51.68
2022-08-17T07:38:25.310Z,51.49
2022-08-17T07:40:53.064Z,51.13
2022-08-17T07:43:23.108Z,51.49
2022-08-17T07:45:50.081Z,51.33
2022-08-17T07:48:16.454Z,51.46
2022-08-17T07:50:42.821Z,51.36
2022-08-17T07:53:16.001Z,51.72
2022-08-17T07:55:42.373Z,51.55
2022-08-17T07:58:08.748Z,51.04
2022-08-17T08:00:35.137Z,51.21
2022-08-17T08:03:01.550Z,51.47
2022-08-17T08:05:48.736Z,51.03
2022-08-17T08:08:14.287Z,51.41
2022-08-17T08:10:42.828Z,50.98
2022-08-17T08:13:12.258Z,51.07
2022-08-17T08:15:40.580Z,50.99
2022-08-17T08:18:11.631Z,51.03
2022-08-17T08:20:51.936Z,51.16
2022-08-17T08:23:19.977Z,50.90
2022-08-17T08:25:48.789Z,51.07
2022-08-17T08:28:19.798Z,50.81
2022-08-17T08:30:46.174Z,51.03
2022-08-17T08:33:12.554Z,50.75
2022-08-17T08:35:38.926Z,51.07
2022-08-17T08:38:05.295Z,50.59
2022-08-17T08:40:31.658Z,50.70
2022-08-17T08:42:58.013Z,50.53
2022-08-17T08:45:24.375Z,50.94
2022-08-17T08:47:50.975Z,50.87
2022-08-17T08:50:37.039Z,51.08
2022-08-17T08:53:03.784Z,50.84
2022-08-17T08:55:32.293Z,51.03
2022-08-17T08:57:58.656Z,50.52
2022-08-17T09:00:25.012Z,50.60
2022-08-17T09:02:51.374Z,50.51
2022-08-17T09:05:17.738Z,50.38
2022-08-17T09:07:44.156Z,50.58
2022-08-17T09:10:10.525Z,50.76
2022-08-17T09:12:36.893Z,50.38
2022-08-17T09:15:03.283Z,50.25
2022-08-17T09:17:29.646Z,50.30
2022-08-17T09:19:56.001Z,50.17
2022-08-17T09:22:22.372Z,50.31
2022-08-17T09:24:48.757Z,50.25
2022-08-17T09:27:15.123Z,50.15
2022-08-17T09:29:41.487Z,50.60
2022-08-17T09:32:07.856Z,50.28
2022-08-17T09:34:34.230Z,50.15
2022-08-17T09:37:01.626Z,50.28
2022-08-17T09:39:28.109Z,50.57
2022-08-17T09:41:54.522Z,50.16
2022-08-17T09:44:22.788Z,50.73
2022-08-17T09:46:50.166Z,50.22
2022-08-17T09:49:16.531Z,50.37
2022-08-17T09:51:42.885Z,50.39
2022-08-17T09:54:35.189Z,50.26
2022-08-17T09:57:11.881Z,50.37
2022-08-17T09:59:41.980Z,50.39
2022-08-17T10:02:08.407Z,50.38
2022-08-17T10:04:39.602Z,50.34
2022-08-17T10:07:05.981Z,50.16
2022-08-17T10:09:32.375Z,50.54
2022-08-17T10:11:58.976Z,50.33
2022-08-17T10:14:38.048Z,50.33
2022-08-17T10:17:10.612Z,50.36
2022-08-17T10:19:36.997Z,50.32
2022-08-17T10:22:14.904Z,50.23
2022-08-17T10:25:21.025Z,50.33
2022-08-17T10:27:36.820Z,50.07
2022-08-17T10:30:03.236Z,50.12
2022-08-17T10:32:29.602Z,50.49
2022-08-17T10:34:55.977Z,50.27
2022-08-17T10:37:22.346Z,50.50
2022-08-17T10:39:52.309Z,50.26
2022-08-17T10:42:30.393Z,50.39
2022-08-17T10:44:59.244Z,50.31
2022-08-17T10:47:25.606Z,50.34
2022-08-17T10:49:51.966Z,50.43
2022-08-17T10:52:18.337Z,50.41
2022-08-17T10:54:44.692Z,50.60
2022-08-17T10:57:11.049Z,50.32
2022-08-17T10:59:37.425Z,50.23
2022-08-17T11:02:03.796Z,50.14
2022-08-17T11:04:30.172Z,50.42
2022-08-17T11:06:56.533Z,50.61
2022-08-17T11:09:22.900Z,50.55
2022-08-17T11:11:49.259Z,50.58
2022-08-17T11:14:15.622Z,50.42
2022-08-17T11:16:41.976Z,50.23
2022-08-17T11:19:08.332Z,50.48
2022-08-17T11:21:34.701Z,50.36
2022-08-17T11:24:01.065Z,50.60
2022-08-17T11:26:27.430Z,50.30
2022-08-17T11:28:53.787Z,50.43
2022-08-17T11:31:20.155Z,50.21
2022-08-17T11:34:04.473Z,50.63
2022-08-17T11:36:30.829Z,50.84
2022-08-17T11:38:57.193Z,50.56
2022-08-17T11:41:23.711Z,50.41
2022-08-17T11:43:50.081Z,50.22
2022-08-17T11:46:16.453Z,50.13
2022-08-17T11:48:42.822Z,50.25
2022-08-17T11:51:09.181Z,50.28
2022-08-17T11:53:35.535Z,50.49
2022-08-17T11:56:01.904Z,50.12
2022-08-17T11:58:28.340Z,50.27
2022-08-17T12:00:54.706Z,50.38
2022-08-17T12:03:21.099Z,50.32
2022-08-17T12:05:47.501Z,50.15
2022-08-17T12:08:13.867Z,50.27
2022-08-17T12:10:40.228Z,50.33
2022-08-17T12:13:06.602Z,50.34
2022-08-17T12:15:32.962Z,50.53
2022-08-17T12:17:59.448Z,50.33
2022-08-17T12:20:25.856Z,50.14
2022-08-17T12:22:52.207Z,50.09
2022-08-17T12:25:18.557Z,50.43
2022-08-17T12:28:05.571Z,50.05
2022-08-17T12:30:31.259Z,50.64
2022-08-17T12:32:57.636Z,49.95
2022-08-17T12:35:23.990Z,50.42
2022-08-17T12:37:50.578Z,50.10
2022-08-17T12:40:17.026Z,50.34
2022-08-17T12:42:43.393Z,49.81
2022-08-17T12:45:09.751Z,50.30
2022-08-17T12:47:36.124Z,50.17
2022-08-17T12:50:02.479Z,50.20
2022-08-17T12:52:28.860Z,50.22
2022-08-17T12:54:55.223Z,50.43
2022-08-17T12:57:21.598Z,50.13
2022-08-17T12:59:47.997Z,50.17
2022-08-17T13:02:15.096Z,49.88
2022-08-17T13:04:41.464Z,50.16
2022-08-17T13:07:07.831Z,50.18
2022-08-17T13:09:36.070Z,50.06
2022-08-17T13:12:07.493Z,50.13
2022-08-17T13:14:34.247Z,50.15
2022-08-17T13:17:00.682Z,50.03
2022-08-17T13:19:39.897Z,50.07
2022-08-17T13:22:07.641Z,50.02
2022-08-17T13:24:38.364Z,50.26
2022-08-17T13:27:08.281Z,50.28
2022-08-17T13:29:34.933Z,50.14
2022-08-17T13:32:04.378Z,50.34
2022-08-17T13:34:31.544Z,50.51
2022-08-17T13:36:59.767Z,49.94
2022-08-17T13:39:26.283Z,50.36
2022-08-17T13:41:52.692Z,50.07
2022-08-17T13:44:19.049Z,50.08
2022-08-17T13:46:45.405Z,50.17
2022-08-17T13:49:16.658Z,50.31
2022-08-17T13:51:43.011Z,50.11
2022-08-17T13:54:09.361Z,49.90
2022-08-17T13:56:38.700Z,50.25
2022-08-17T13:59:05.659Z,50.49
2022-08-17T14:01:32.077Z,50.25
2022-08-17T14:03:58.533Z,50.37
2022-08-17T14:06:52.291Z,50.24
2022-08-17T14:09:11.233Z,50.04
2022-08-17T14:11:37.601Z,50.19
2022-08-17T14:14:03.959Z,50.53
2022-08-17T14:16:30.318Z,50.29
2022-08-17T14:18:57.515Z,50.05
2022-08-17T14:21:23.942Z,50.35
2022-08-17T14:23:54.900Z,50.43
2022-08-17T14:26:21.439Z,50.21
2022-08-17T14:28:56.708Z,50.13
2022-08-17T14:31:23.397Z,50.64
2022-08-17T14:33:49.759Z,50.09
2022-08-17T14:36:16.116Z,50.08
2022-08-17T14:38:42.493Z,50.07
2022-08-17T14:41:08.853Z,50.11
2022-08-17T14:43:35.209Z,49.87
2022-08-17T14:46:01.572Z,50.05
2022-08-17T14:48:27.931Z,50.33
2022-08-17T14:50:54.282Z,50.09
2022-08-17T14:53:20.634Z,50.05
2022-08-17T14:55:47.516Z,50.33
2022-08-17T14:58:15.075Z,50.39
2022-08-17T15:00:41.445Z,50.25
2022-08-17T15:03:07.809Z,50.13
2022-08-17T15:05:34.182Z,49.92
2022-08-17T15:08:00.559Z,50.18
2022-08-17T15:10:26.972Z,50.20
2022-08-17T15:12:53.361Z,50.31
2022-08-17T15:15:19.718Z,50.34
2022-08-17T15:17:46.257Z,50.55
2022-08-17T15:20:14.923Z,50.18
2022-08-17T15:22:41.597Z,50.23
2022-08-17T15:25:07.975Z,50.24
2022-08-17T15:27:34.365Z,50.26
2022-08-17T15:30:00.722Z,50.19
2022-08-17T15:32:27.080Z,50.10
2022-08-17T15:34:53.450Z,50.21
2022-08-17T15:37:19.800Z,50.15
2022-08-17T15:39:46.235Z,49.80
2022-08-17T15:42:12.672Z,49.69
2022-08-17T15:44:39.037Z,50.18
2022-08-17T15:47:05.411Z,50.05
2022-08-17T15:49:31.778Z,50.10
2022-08-17T15:51:58.191Z,49.94
2022-08-17T15:54:24.606Z,50.26
2022-08-17T15:56:58.122Z,49.77
2022-08-17T15:59:24.482Z,50.11
2022-08-17T16:03:13.293Z,49.87
2022-08-17T16:04:40.243Z,50.17
2022-08-17T16:07:10.423Z,49.81
2022-08-17T16:09:36.794Z,49.73
2022-08-17T16:12:03.169Z,49.92
2022-08-17T16:14:34.212Z,49.97
2022-08-17T16:17:01.643Z,50.15
2022-08-17T16:19:28.002Z,49.90
2022-08-17T16:21:54.373Z,50.14
2022-08-17T16:24:20.773Z,49.65
2022-08-17T16:26:47.125Z,49.87
2022-08-17T16:29:13.482Z,50.06
2022-08-17T16:31:39.840Z,50.04
2022-08-17T16:34:17.971Z,50.09
2022-08-17T16:36:54.852Z,50.13
2022-08-17T16:39:22.648Z,49.61
2022-08-17T16:41:49.013Z,49.62
2022-08-17T16:44:15.726Z,49.63
2022-08-17T16:46:45.531Z,49.98
2022-08-17T16:49:12.490Z,50.13
2022-08-17T16:51:53.967Z,49.47
2022-08-17T16:54:20.329Z,50.17
2022-08-17T16:56:46.708Z,49.53
2022-08-17T16:59:32.289Z,49.74
2022-08-17T17:01:59.415Z,49.95
2022-08-17T17:04:25.767Z,49.83
2022-08-17T17:06:52.164Z,49.79
2022-08-17T17:09:18.526Z,49.54
2022-08-17T17:11:44.882Z,49.77
2022-08-17T17:14:11.237Z,49.59
2022-08-17T17:16:37.591Z,49.90
2022-08-17T17:19:05.545Z,49.53
2022-08-17T17:21:31.934Z,50.11
2022-08-17T17:23:58.298Z,49.73
2022-08-17T17:26:24.664Z,49.57
2022-08-17T17:28:51.047Z,49.84
2022-08-17T17:31:17.438Z,49.49
2022-08-17T17:33:43.806Z,49.81
2022-08-17T17:36:10.168Z,49.47
2022-08-17T17:38:36.529Z,49.73
2022-08-17T17:41:03.138Z,49.78
2022-08-17T17:43:44.867Z,49.98
2022-08-17T17:46:28.545Z,49.68
2022-08-17T17:48:55.562Z,49.86
2022-08-17T17:51:55.053Z,50.58
2022-08-17T17:54:08.279Z,50.49
2022-08-17T17:56:43.890Z,50.16
2022-08-17T17:59:12.672Z,50.25
2022-08-17T18:01:39.459Z,50.49
2022-08-17T18:04:08.281Z,50.53
2022-08-17T18:06:44.075Z,50.50
2022-08-17T18:09:10.437Z,50.76
2022-08-17T18:11:37.361Z,50.61
2022-08-17T18:14:03.919Z,50.91
2022-08-17T18:16:31.929Z,50.77
2022-08-17T18:18:58.459Z,51.20
2022-08-17T18:21:24.828Z,50.78
2022-08-17T18:23:51.210Z,51.09
2022-08-17T18:26:17.565Z,50.98
2022-08-17T18:28:43.923Z,51.21
2022-08-17T18:31:10.285Z,51.49
2022-08-17T18:33:36.646Z,51.31
2022-08-17T18:36:03.024Z,51.27
2022-08-17T18:38:29.447Z,51.49
2022-08-17T18:40:57.155Z,51.53
2022-08-17T18:43:23.607Z,51.74
2022-08-17T18:45:50.036Z,51.54
2022-08-17T18:48:16.477Z,51.50
2022-08-17T18:50:42.927Z,51.86
2022-08-17T18:53:09.785Z,51.89
2022-08-17T18:55:36.155Z,51.89
2022-08-17T18:58:03.789Z,52.62
2022-08-17T19:00:30.233Z,51.96
2022-08-17T19:02:56.691Z,52.24
2022-08-17T19:05:23.184Z,52.33
2022-08-17T19:07:49.951Z,52.42
2022-08-17T19:10:16.706Z,52.76
2022-08-17T19:12:43.137Z,52.13
2022-08-17T19:15:09.567Z,52.23
2022-08-17T19:17:35.995Z,52.25
2022-08-17T19:20:02.391Z,52.13
2022-08-17T19:22:30.988Z,52.16
2022-08-17T19:25:02.571Z,51.83
2022-08-17T19:27:41.868Z,51.71
2022-08-17T19:30:16.932Z,52.29
2022-08-17T19:32:46.576Z,52.36
2022-08-17T19:35:17.289Z,52.30
2022-08-17T19:37:43.973Z,52.14
2022-08-17T19:40:10.462Z,51.82
2022-08-17T19:42:37.054Z,52.28
2022-08-17T19:45:03.577Z,51.93
2022-08-17T19:47:51.515Z,52.30
2022-08-17T19:50:16.362Z,52.15
2022-08-17T19:52:42.731Z,52.31
2022-08-17T19:55:09.118Z,52.15
2022-08-17T19:57:35.497Z,52.67
2022-08-17T20:00:01.876Z,52.35
2022-08-17T20:02:28.251Z,52.37
2022-08-17T20:04:54.627Z,52.69
2022-08-17T20:07:20.992Z,52.49
2022-08-17T20:09:47.347Z,52.70
2022-08-17T20:12:13.708Z,53.14
2022-08-17T20:14:40.076Z,52.89
2022-08-17T20:17:20.326Z,52.87
2022-08-17T20:19:49.662Z,52.45
2022-08-17T20:22:16.026Z,52.02
2022-08-17T20:24:42.397Z,52.16
2022-08-17T20:27:08.757Z,52.36
2022-08-17T20:29:39.564Z,52.18
2022-08-17T20:32:07.016Z,52.63
2022-08-17T20:34:36.747Z,52.26
2022-08-17T20:37:04.028Z,52.51
2022-08-17T20:39:34.823Z,52.41
2022-08-17T20:42:02.826Z,52.42
2022-08-17T20:44:29.268Z,52.61
2022-08-17T20:46:55.642Z,52.41
2022-08-17T20:49:22.009Z,52.26
2022-08-17T20:52:00.765Z,52.37
2022-08-17T20:54:28.221Z,52.69
2022-08-17T20:56:54.580Z,51.97
2022-08-17T20:59:20.970Z,52.36
2022-08-17T21:01:47.383Z,52.25
2022-08-17T21:04:13.789Z,52.42
2022-08-17T21:06:40.157Z,52.36
2022-08-17T21:09:06.518Z,52.51
2022-08-17T21:12:01.494Z,52.55
2022-08-17T21:14:19.214Z,52.16
2022-08-17T21:16:45.569Z,52.15
2022-08-17T21:19:11.921Z,52.35
2022-08-17T21:21:38.290Z,52.25
2022-08-17T21:24:04.642Z,52.07
2022-08-17T21:26:31.083Z,52.32
2022-08-17T21:29:00.728Z,52.72
2022-08-17T21:31:27.984Z,52.55
2022-08-17T21:33:55.989Z,52.42
2022-08-17T21:36:22.354Z,52.49
2022-08-17T21:38:48.715Z,52.77
2022-08-17T21:41:15.079Z,52.72
2022-08-17T21:43:41.445Z,52.71
2022-08-17T21:46:07.801Z,52.85
2022-08-17T21:48:34.192Z,52.55
2022-08-17T21:51:00.635Z,52.86
2022-08-17T21:53:32.192Z,52.33
2022-08-17T21:55:59.334Z,52.35
2022-08-17T21:58:25.701Z,52.35
2022-08-17T22:00:52.111Z,52.35
2022-08-17T22:03:18.538Z,52.67
2022-08-17T22:05:44.906Z,52.65
2022-08-17T22:08:16.523Z,52.23
2022-08-17T22:10:43.749Z,52.48
2022-08-17T22:13:16.484Z,52.34
2022-08-17T22:15:43.801Z,52.83
2022-08-17T22:18:10.157Z,52.50
2022-08-17T22:20:36.518Z,52.62
2022-08-17T22:23:02.872Z,52.28
2022-08-17T22:25:29.224Z,52.35
2022-08-17T22:27:55.593Z,51.99
2022-08-17T22:30:21.961Z,51.88
2022-08-17T22:32:48.324Z,51.95
2022-08-17T22:35:14.687Z,52.05
2022-08-17T22:37:41.068Z,51.67
2022-08-17T22:40:07.501Z,51.53
2022-08-17T22:42:33.950Z,51.71
2022-08-17T22:45:00.313Z,51.59
2022-08-17T22:47:26.669Z,51.75
2022-08-17T22:49:54.528Z,51.77
2022-08-17T22:52:21.039Z,51.50
2022-08-17T22:54:47.392Z,51.93
2022-08-17T22:57:13.758Z,52.04
2022-08-17T22:59:40.129Z,52.07
2022-08-17T23:02:06.494Z,52.38
2022-08-17T23:04:32.860Z,51.97
2022-08-17T23:06:59.221Z,52.05
2022-08-17T23:09:25.579Z,52.01
2022-08-17T23:11:51.954Z,52.24
2022-08-17T23:14:18.301Z,51.87
2022-08-17T23:16:44.674Z,51.90
2022-08-17T23:19:11.043Z,51.86
2022-08-17T23:21:37.425Z,51.83
2022-08-17T23:24:03.795Z,51.84
2022-08-17T23:26:32.194Z,51.66
2022-08-17T23:28:58.553Z,51.63
2022-08-17T23:31:25.760Z,52.03
2022-08-17T23:33:52.407Z,51.66
2022-08-17T23:36:18.755Z,51.78
2022-08-17T23:38:45.119Z,51.89
2022-08-17T23:41:11.477Z,51.94
2022-08-17T23:43:37.833Z,51.67
2022-08-17T23:46:04.228Z,52.06
2022-08-17T23:48:35.691Z,52.18
2022-08-17T23:51:04.244Z,51.77
2022-08-17T23:53:30.796Z,52.02
2022-08-17T23:56:03.938Z,52.21
2022-08-17T23:58:36.306Z,51.96
